Time;durP1;ratioP1;P1;durP2;ratioP2;P2;SDS_P1;SDS_P2;PMS_P1;PMS_P2;Temp;Humidity;BMP_temperature;BMP_pressure;BME280_temperature;BME280_humidity;BME280_pressure;Samples;Min_cycle;Max_cycle;Signal;HPM_P1;HPM_P2
2023/02/14 00:00:20;;;;;;;11.83;6.90;;;5.10;99.90;;;;;;5038944;28;20226;-72
2023/02/14 00:02:47;;;;;;;11.83;7.87;;;5.00;99.90;;;;;;5052915;28;20232;-71
2023/02/14 00:05:13;;;;;;;12.67;6.90;;;5.10;99.90;;;;;;5039636;28;20466;-71
2023/02/14 00:07:39;;;;;;;18.60;9.63;;;5.10;99.90;;;;;;5039335;28;20792;-71
2023/02/14 00:10:05;;;;;;;16.27;9.50;;;5.00;99.90;;;;;;5035210;28;20218;-71
2023/02/14 00:12:31;;;;;;;13.53;8.13;;;4.90;99.90;;;;;;5048166;28;20570;-71
2023/02/14 00:17:41;;;;;;;17.03;8.23;;;4.90;99.90;;;;;;5049568;28;20701;-71
2023/02/14 00:20:07;;;;;;;12.37;7.70;;;5.00;99.90;;;;;;5049083;28;20441;-71
2023/02/14 00:22:32;;;;;;;11.87;7.67;;;4.80;99.90;;;;;;5032984;28;20213;-70
2023/02/14 00:24:58;;;;;;;19.10;8.97;;;4.70;99.90;;;;;;5037203;28;20446;-71
2023/02/14 00:27:24;;;;;;;16.67;8.93;;;4.70;99.90;;;;;;5032935;28;20290;-71
2023/02/14 00:29:49;;;;;;;12.30;8.27;;;4.80;99.90;;;;;;5031321;28;20219;-71
2023/02/14 00:32:15;;;;;;;13.50;7.53;;;4.90;99.90;;;;;;5032336;28;20242;-71
2023/02/14 00:34:41;;;;;;;11.27;7.83;;;4.90;99.90;;;;;;5032371;28;20233;-70
2023/02/14 00:37:09;;;;;;;14.57;9.03;;;4.90;99.90;;;;;;5030230;28;20214;-71
2023/02/14 00:39:35;;;;;;;11.60;8.20;;;4.90;99.90;;;;;;5039640;28;20836;-71
2023/02/14 00:42:00;;;;;;;10.17;7.90;;;4.90;99.90;;;;;;5049037;28;20217;-71
2023/02/14 00:44:26;;;;;;;10.00;7.50;;;4.80;99.90;;;;;;5032821;28;20218;-71
2023/02/14 00:46:52;;;;;;;13.93;7.70;;;4.90;99.90;;;;;;5031956;28;20283;-70
2023/02/14 00:49:17;;;;;;;17.17;10.13;;;4.90;99.90;;;;;;5031616;28;20255;-71
2023/02/14 00:51:43;;;;;;;19.50;10.27;;;4.80;99.90;;;;;;5028229;28;20219;-70
2023/02/14 00:54:09;;;;;;;16.47;7.73;;;4.80;99.90;;;;;;5049163;28;20226;-70
2023/02/14 00:56:34;;;;;;;11.80;8.47;;;4.80;99.90;;;;;;5048144;28;20225;-72
2023/02/14 00:59:00;;;;;;;15.73;8.50;;;4.70;99.90;;;;;;5030547;28;20250;-71
2023/02/14 01:01:26;;;;;;;14.30;8.60;;;4.70;99.90;;;;;;5028853;28;20248;-70
2023/02/14 01:03:52;;;;;;;17.77;9.17;;;4.70;99.90;;;;;;5024296;28;20222;-71
2023/02/14 01:06:18;;;;;;;11.93;8.00;;;4.70;99.90;;;;;;5033046;28;20472;-71
2023/02/14 01:08:44;;;;;;;15.07;8.30;;;4.60;99.90;;;;;;5027574;28;20222;-70
2023/02/14 01:11:21;;;;;;;15.07;8.73;;;4.60;99.90;;;;;;5049021;28;20568;-71
2023/02/14 01:13:48;;;;;;;13.87;8.10;;;4.60;99.90;;;;;;5027171;28;20476;-70
2023/02/14 01:16:20;;;;;;;12.30;8.40;;;4.60;99.90;;;;;;5031621;28;20584;-70
2023/02/14 01:18:46;;;;;;;15.40;8.20;;;4.60;99.90;;;;;;5047397;28;21045;-71
2023/02/14 01:21:19;;;;;;;11.40;8.23;;;4.60;99.90;;;;;;5048648;28;20499;-71
2023/02/14 01:23:46;;;;;;;14.20;8.50;;;4.50;99.90;;;;;;5048219;28;20457;-70
2023/02/14 01:26:12;;;;;;;11.33;8.40;;;4.50;99.90;;;;;;5032261;28;20461;-70
2023/02/14 01:28:38;;;;;;;14.43;8.43;;;4.50;99.90;;;;;;5028050;28;20462;-71
2023/02/14 01:31:17;;;;;;;18.30;8.47;;;4.40;99.90;;;;;;5028444;28;20480;-69
2023/02/14 01:33:44;;;;;;;13.63;8.00;;;4.40;99.90;;;;;;5029872;28;20222;-71
2023/02/14 01:36:15;;;;;;;15.20;8.60;;;4.40;99.90;;;;;;5044598;28;20497;-70
2023/02/14 01:38:41;;;;;;;12.60;8.43;;;4.30;99.90;;;;;;5046702;28;20457;-70
2023/02/14 01:41:07;;;;;;;15.00;9.10;;;4.30;99.90;;;;;;5031693;28;20515;-69
2023/02/14 01:43:54;;;;;;;10.40;8.10;;;4.30;99.90;;;;;;5031668;28;20226;-71
2023/02/14 01:46:23;;;;;;;13.70;8.20;;;4.30;99.90;;;;;;5042594;28;20292;-71
2023/02/14 01:48:50;;;;;;;14.87;8.27;;;4.30;99.90;;;;;;5035477;28;20442;-70
2023/02/14 01:51:17;;;;;;;12.13;8.27;;;4.30;99.90;;;;;;5040746;28;20462;-70
2023/02/14 01:53:43;;;;;;;12.83;7.60;;;4.30;99.90;;;;;;5045442;28;20453;-70
2023/02/14 01:56:13;;;;;;;13.03;8.60;;;4.30;99.90;;;;;;5047936;28;20965;-70
2023/02/14 01:58:43;;;;;;;11.43;7.20;;;4.30;99.90;;;;;;5036863;28;20687;-70
2023/02/14 02:01:12;;;;;;;12.90;8.63;;;4.20;99.90;;;;;;5044943;28;20462;-69
2023/02/14 02:03:49;;;;;;;14.47;7.43;;;4.20;99.90;;;;;;5028593;28;20454;-71
2023/02/14 02:06:24;;;;;;;16.73;8.60;;;4.20;99.90;;;;;;5030412;28;20483;-70
2023/02/14 02:09:11;;;;;;;12.50;7.50;;;4.10;99.90;;;;;;5029028;28;20455;-70
2023/02/14 02:11:36;;;;;;;15.57;8.50;;;4.10;99.90;;;;;;5030691;28;20463;-71
2023/02/14 02:14:03;;;;;;;16.17;9.27;;;4.10;99.90;;;;;;5035356;28;20449;-70
2023/02/14 02:16:38;;;;;;;15.57;8.63;;;4.00;99.90;;;;;;5031297;28;20250;-70
2023/02/14 02:19:19;;;;;;;17.57;8.37;;;4.10;99.90;;;;;;5031090;28;20540;-71
2023/02/14 02:21:53;;;;;;;16.00;9.17;;;4.10;99.90;;;;;;5029687;28;20493;-69
2023/02/14 02:24:43;;;;;;;17.67;9.97;;;4.10;99.90;;;;;;5042476;28;21035;-70
2023/02/14 02:27:23;;;;;;;16.80;9.73;;;4.10;99.90;;;;;;5023371;28;20465;-71
2023/02/14 02:29:54;;;;;;;16.40;9.20;;;4.10;99.90;;;;;;5051198;28;20461;-70
2023/02/14 02:32:32;;;;;;;14.93;7.50;;;4.10;99.90;;;;;;5031991;28;20485;-71
2023/02/14 02:35:23;;;;;;;16.00;8.83;;;4.00;99.90;;;;;;5035336;28;20524;-71
2023/02/14 02:38:05;;;;;;;13.70;8.60;;;3.90;99.90;;;;;;5033108;28;20790;-69
2023/02/14 02:41:16;;;;;;;11.80;7.60;;;3.80;99.90;;;;;;5034068;28;20989;-71
2023/02/14 02:44:00;;;;;;;13.53;7.90;;;3.80;99.90;;;;;;5031494;28;20449;-70
2023/02/14 02:46:46;;;;;;;14.90;8.23;;;3.70;99.90;;;;;;5041938;28;20465;-70
2023/02/14 02:55:27;;;;;;;14.47;8.73;;;3.90;99.90;;;;;;5050895;28;20469;-70
2023/02/14 02:57:53;;;;;;;13.93;8.40;;;3.90;99.90;;;;;;5056676;28;20534;-70
2023/02/14 03:00:21;;;;;;;15.60;9.23;;;3.90;99.90;;;;;;5029866;28;20486;-70
2023/02/14 03:05:36;;;;;;;16.40;9.03;;;3.90;99.90;;;;;;5042222;28;20473;-71
2023/02/14 03:08:03;;;;;;;15.80;9.10;;;3.80;99.90;;;;;;5038318;28;20972;-69
2023/02/14 03:10:36;;;;;;;16.80;9.80;;;3.80;99.90;;;;;;5051333;28;20444;-71
2023/02/14 03:13:18;;;;;;;20.53;9.20;;;3.80;99.90;;;;;;5031624;28;20453;-70
2023/02/14 03:16:09;;;;;;;17.47;9.07;;;3.80;99.90;;;;;;5014609;28;20489;-70
2023/02/14 03:18:43;;;;;;;16.43;9.10;;;3.80;99.90;;;;;;5042427;28;20467;-71
2023/02/14 03:21:20;;;;;;;20.50;9.87;;;3.80;99.90;;;;;;5031385;28;20509;-68
2023/02/14 03:24:07;;;;;;;15.87;8.97;;;3.80;99.90;;;;;;5034128;28;21055;-71
2023/02/14 03:26:41;;;;;;;16.07;7.90;;;3.80;99.90;;;;;;5034438;28;20472;-71
2023/02/14 03:29:17;;;;;;;14.10;7.97;;;3.80;99.90;;;;;;5033300;28;20464;-69
2023/02/14 03:32:06;;;;;;;15.10;8.23;;;3.70;99.90;;;;;;5033044;28;20461;-71
2023/02/14 03:34:45;;;;;;;15.57;9.10;;;3.70;99.90;;;;;;5028450;28;20539;-70
2023/02/14 03:37:33;;;;;;;12.90;8.27;;;3.70;99.90;;;;;;5040597;28;20453;-71
2023/02/14 03:40:19;;;;;;;18.23;8.97;;;3.70;99.90;;;;;;5029782;28;20445;-70
2023/02/14 03:42:55;;;;;;;12.63;7.47;;;3.70;99.90;;;;;;5050010;28;20456;-70
2023/02/14 03:45:31;;;;;;;17.03;9.17;;;3.70;99.90;;;;;;5034483;28;20468;-70
2023/02/14 03:48:02;;;;;;;16.10;9.47;;;3.70;99.90;;;;;;5046558;28;20542;-70
2023/02/14 03:50:31;;;;;;;16.83;8.80;;;3.60;99.90;;;;;;5040009;28;20448;-71
2023/02/14 03:52:58;;;;;;;16.50;9.03;;;3.60;99.90;;;;;;5050141;28;20914;-70
2023/02/14 03:55:36;;;;;;;13.50;8.40;;;3.60;99.90;;;;;;5033329;28;20630;-70
2023/02/14 03:58:27;;;;;;;11.87;7.73;;;3.60;99.90;;;;;;5033341;28;21047;-70
2023/02/14 04:01:04;;;;;;;12.97;8.00;;;3.70;99.90;;;;;;5038311;28;20543;-70
2023/02/14 04:03:31;;;;;;;17.40;8.70;;;3.60;99.90;;;;;;5028127;28;20457;-70
2023/02/14 04:05:57;;;;;;;18.17;8.80;;;3.60;99.90;;;;;;5033121;28;20484;-70
2023/02/14 04:08:27;;;;;;;13.93;8.17;;;3.60;99.90;;;;;;5038184;28;20457;-71
2023/02/14 04:10:55;;;;;;;13.10;7.87;;;3.60;99.90;;;;;;5046026;28;20541;-69
2023/02/14 04:13:20;;;;;;;12.63;8.20;;;3.60;99.90;;;;;;5030459;28;20508;-70
2023/02/14 04:15:46;;;;;;;16.73;8.90;;;3.60;99.90;;;;;;5039771;28;20506;-70
2023/02/14 04:20:56;;;;;;;15.87;8.67;;;3.50;99.90;;;;;;5050784;28;20206;-70
2023/02/14 04:23:21;;;;;;;14.37;8.50;;;3.50;99.90;;;;;;5014327;28;20437;-70
2023/02/14 04:25:48;;;;;;;15.73;8.27;;;3.50;99.90;;;;;;5030919;28;20238;-70
2023/02/14 04:28:13;;;;;;;15.87;8.80;;;3.50;99.90;;;;;;5026605;28;20286;-69
2023/02/14 04:30:39;;;;;;;15.90;9.17;;;3.50;99.90;;;;;;5026099;28;20496;-70
2023/02/14 04:33:06;;;;;;;13.43;8.70;;;3.40;99.90;;;;;;5050131;28;20225;-70
2023/02/14 04:35:33;;;;;;;16.43;9.27;;;3.40;99.90;;;;;;5050757;28;20218;-70
2023/02/14 04:38:00;;;;;;;12.93;8.00;;;3.50;99.90;;;;;;5049814;28;20935;-70
2023/02/14 04:40:26;;;;;;;16.60;8.47;;;3.40;99.90;;;;;;5047829;28;21016;-69
2023/02/14 04:42:51;;;;;;;16.13;8.97;;;3.40;99.90;;;;;;5028318;28;20446;-70
2023/02/14 04:45:18;;;;;;;15.13;8.60;;;3.40;99.90;;;;;;5046738;28;20603;-70
2023/02/14 04:47:44;;;;;;;14.23;8.10;;;3.40;99.90;;;;;;5021166;28;20465;-70
2023/02/14 04:50:10;;;;;;;17.63;9.23;;;3.40;99.90;;;;;;5032496;28;20824;-69
2023/02/14 04:52:35;;;;;;;17.10;10.27;;;3.40;99.90;;;;;;5047715;28;20670;-69
2023/02/14 04:55:03;;;;;;;17.93;8.77;;;3.40;99.90;;;;;;5048148;28;20453;-69
2023/02/14 04:57:29;;;;;;;19.17;9.07;;;3.40;99.90;;;;;;5051683;28;20213;-70
2023/02/14 04:59:55;;;;;;;18.87;8.50;;;3.40;99.90;;;;;;5032560;28;20542;-70
2023/02/14 05:02:21;;;;;;;15.10;9.30;;;3.40;99.90;;;;;;5051819;28;20472;-70
2023/02/14 05:04:46;;;;;;;19.53;10.07;;;3.40;99.90;;;;;;5049677;28;20470;-70
2023/02/14 05:07:12;;;;;;;15.20;9.90;;;3.40;99.90;;;;;;5016374;28;20231;-70
2023/02/14 05:09:38;;;;;;;15.70;9.10;;;3.40;99.90;;;;;;5044526;28;20215;-71
2023/02/14 05:12:03;;;;;;;16.17;8.57;;;3.40;99.90;;;;;;5039530;28;20249;-70
2023/02/14 05:14:29;;;;;;;19.27;8.80;;;3.40;99.90;;;;;;5046942;28;20302;-69
2023/02/14 05:16:55;;;;;;;13.27;8.43;;;3.40;99.90;;;;;;5034872;28;20226;-69
2023/02/14 05:19:20;;;;;;;24.57;9.17;;;3.40;99.90;;;;;;5031939;28;20222;-70
2023/02/14 05:21:46;;;;;;;24.37;10.57;;;3.40;99.90;;;;;;5048013;28;20249;-70
2023/02/14 05:24:12;;;;;;;20.97;12.40;;;3.40;99.90;;;;;;5049230;28;20223;-70
2023/02/14 05:26:37;;;;;;;24.17;12.00;;;3.40;99.90;;;;;;5028482;28;20221;-70
2023/02/14 05:29:03;;;;;;;22.67;12.17;;;3.40;99.90;;;;;;5027104;28;20214;-70
2023/02/14 05:31:29;;;;;;;22.47;11.60;;;3.40;99.90;;;;;;5049569;28;20225;-71
2023/02/14 05:33:55;;;;;;;24.70;12.70;;;3.30;99.90;;;;;;5032549;28;20447;-70
2023/02/14 05:36:20;;;;;;;24.73;13.27;;;3.30;99.90;;;;;;5031787;28;20707;-70
2023/02/14 05:38:46;;;;;;;26.67;13.83;;;3.30;99.90;;;;;;5039147;28;20230;-70
2023/02/14 05:41:11;;;;;;;20.50;10.43;;;3.30;99.90;;;;;;5050996;28;20421;-70
2023/02/14 05:43:37;;;;;;;22.23;11.80;;;3.30;99.90;;;;;;5047722;28;20218;-70
2023/02/14 05:46:03;;;;;;;21.20;11.00;;;3.30;99.90;;;;;;5044932;28;20241;-68
2023/02/14 05:48:29;;;;;;;22.70;13.50;;;3.30;99.90;;;;;;5028006;28;20226;-69
2023/02/14 05:50:54;;;;;;;23.30;12.10;;;3.30;99.90;;;;;;5044105;28;20227;-68
2023/02/14 05:53:20;;;;;;;25.70;12.30;;;3.30;99.90;;;;;;5031018;28;20303;-70
2023/02/14 05:55:46;;;;;;;26.50;10.43;;;3.40;99.90;;;;;;5043637;28;20230;-69
2023/02/14 05:58:12;;;;;;;28.90;13.40;;;3.40;99.90;;;;;;5029815;28;20556;-70
2023/02/14 06:00:38;;;;;;;21.13;12.87;;;3.40;99.90;;;;;;5022863;28;20222;-70
2023/02/14 06:03:04;;;;;;;20.43;11.97;;;3.30;99.90;;;;;;5029026;28;20455;-69
2023/02/14 06:05:30;;;;;;;18.33;10.17;;;3.30;99.90;;;;;;5047607;28;20563;-69
2023/02/14 06:07:55;;;;;;;17.97;10.10;;;3.20;99.90;;;;;;5038709;28;20218;-70
2023/02/14 06:10:23;;;;;;;20.00;10.03;;;3.30;99.90;;;;;;5015679;28;20213;-70
2023/02/14 06:12:50;;;;;;;17.17;9.87;;;3.30;99.90;;;;;;5046063;28;20238;-69
2023/02/14 06:15:16;;;;;;;17.13;9.50;;;3.40;99.90;;;;;;5047274;28;20457;-70
2023/02/14 06:17:42;;;;;;;18.00;9.10;;;3.40;99.90;;;;;;5029129;28;20947;-70
2023/02/14 06:20:08;;;;;;;18.17;9.23;;;3.40;99.90;;;;;;5027181;28;20573;-69
2023/02/14 06:22:38;;;;;;;11.93;7.37;;;3.50;99.90;;;;;;5041747;28;20452;-70
2023/02/14 06:25:05;;;;;;;12.90;8.37;;;3.50;99.90;;;;;;5048389;28;20448;-69
2023/02/14 06:27:31;;;;;;;15.47;8.67;;;3.40;99.90;;;;;;5044555;28;20469;-70
2023/02/14 06:29:57;;;;;;;12.33;8.87;;;3.40;99.90;;;;;;5020735;28;21003;-70
2023/02/14 06:32:23;;;;;;;18.80;10.80;;;3.40;99.90;;;;;;5038525;28;20451;-70
2023/02/14 06:34:49;;;;;;;19.90;10.90;;;3.40;99.90;;;;;;5038763;28;20223;-71
2023/02/14 06:37:14;;;;;;;29.67;10.30;;;3.40;99.90;;;;;;5019903;28;20525;-69
2023/02/14 06:39:40;;;;;;;16.77;10.67;;;3.50;99.90;;;;;;5021546;28;20288;-70
2023/02/14 06:42:06;;;;;;;22.10;11.47;;;3.50;99.90;;;;;;5035666;28;20252;-71
2023/02/14 06:44:32;;;;;;;23.03;11.20;;;3.50;99.90;;;;;;5027803;28;20308;-70
2023/02/14 06:46:57;;;;;;;21.23;10.43;;;3.50;99.90;;;;;;5020032;28;20239;-69
2023/02/14 06:49:23;;;;;;;24.10;12.00;;;3.50;99.90;;;;;;5019200;28;20746;-71
2023/02/14 06:51:49;;;;;;;25.03;11.30;;;3.50;99.90;;;;;;5025124;28;20638;-68
2023/02/14 06:54:15;;;;;;;21.60;10.70;;;3.50;99.90;;;;;;5027822;28;20226;-68
2023/02/14 06:56:41;;;;;;;19.90;10.43;;;3.50;99.90;;;;;;5033859;28;20543;-70
2023/02/14 06:59:06;;;;;;;16.50;9.57;;;3.50;99.90;;;;;;5024697;28;20663;-68
2023/02/14 07:01:32;;;;;;;20.07;10.10;;;3.50;99.90;;;;;;5025879;28;20460;-67
2023/02/14 07:03:58;;;;;;;22.07;11.20;;;3.50;99.90;;;;;;5021095;28;20239;-68
2023/02/14 07:06:23;;;;;;;24.50;11.63;;;3.50;99.90;;;;;;5044341;28;20237;-69
2023/02/14 07:08:49;;;;;;;20.20;11.17;;;3.50;99.90;;;;;;5022176;28;20284;-69
2023/02/14 07:11:15;;;;;;;24.63;12.67;;;3.50;99.90;;;;;;5037786;28;20221;-70
2023/02/14 07:13:42;;;;;;;30.53;13.63;;;3.50;99.90;;;;;;5020765;28;20245;-69
2023/02/14 07:16:08;;;;;;;19.23;10.67;;;3.50;99.90;;;;;;5038909;28;20219;-69
2023/02/14 07:18:34;;;;;;;20.07;11.17;;;3.50;99.90;;;;;;5037952;28;20462;-70
2023/02/14 07:21:00;;;;;;;16.87;9.40;;;3.50;99.90;;;;;;5049931;28;20231;-70
2023/02/14 07:23:25;;;;;;;19.40;9.47;;;3.50;99.90;;;;;;5047237;28;20218;-71
2023/02/14 07:25:51;;;;;;;20.73;10.07;;;3.50;99.90;;;;;;5043866;28;20631;-71
2023/02/14 07:28:17;;;;;;;18.93;10.47;;;3.50;99.90;;;;;;5045948;28;20218;-70
2023/02/14 07:30:42;;;;;;;24.83;10.20;;;3.50;99.90;;;;;;5049895;28;20566;-71
2023/02/14 07:33:08;;;;;;;18.97;9.30;;;3.50;99.90;;;;;;5037911;28;20546;-71
2023/02/14 07:35:34;;;;;;;16.10;8.67;;;3.50;99.90;;;;;;5046601;28;20281;-71
2023/02/14 07:38:00;;;;;;;20.57;11.57;;;3.50;99.90;;;;;;5041706;28;20230;-70
2023/02/14 07:40:25;;;;;;;26.40;11.17;;;3.40;99.90;;;;;;5043142;28;20457;-70
2023/02/14 07:42:53;;;;;;;18.50;10.67;;;3.50;99.90;;;;;;5045853;28;20345;-70
2023/02/14 07:45:19;;;;;;;18.83;9.57;;;3.50;99.90;;;;;;5043057;28;20565;-71
2023/02/14 07:47:47;;;;;;;28.67;12.03;;;3.50;99.90;;;;;;5027061;28;20513;-70
2023/02/14 07:50:13;;;;;;;26.07;10.63;;;3.50;99.90;;;;;;5031421;28;20464;-70
2023/02/14 07:52:38;;;;;;;20.80;10.00;;;3.50;99.90;;;;;;5042714;28;20454;-71
2023/02/14 07:55:04;;;;;;;15.67;8.50;;;3.50;99.90;;;;;;5031813;28;20218;-70
2023/02/14 07:57:30;;;;;;;14.20;8.37;;;3.50;99.90;;;;;;5047858;28;20243;-70
2023/02/14 07:59:56;;;;;;;21.33;9.90;;;3.40;99.90;;;;;;5039221;28;20460;-70
2023/02/14 08:02:21;;;;;;;24.53;11.80;;;3.40;99.90;;;;;;5048202;28;20674;-71
2023/02/14 08:04:47;;;;;;;26.87;13.47;;;3.50;99.90;;;;;;5037250;28;20220;-71
2023/02/14 08:07:13;;;;;;;26.17;13.73;;;3.50;99.90;;;;;;5037970;28;20237;-70
2023/02/14 08:09:38;;;;;;;25.60;13.20;;;3.40;99.90;;;;;;5034415;28;20221;-71
2023/02/14 08:14:49;;;;;;;19.27;11.87;;;3.40;99.90;;;;;;5039550;28;20231;-71
2023/02/14 08:17:14;;;;;;;22.17;10.17;;;3.40;99.90;;;;;;5027609;28;20805;-69
2023/02/14 08:19:40;;;;;;;16.83;10.13;;;3.40;99.90;;;;;;5036014;28;20278;-70
2023/02/14 08:22:06;;;;;;;20.70;7.90;;;3.40;99.90;;;;;;5048716;28;20223;-71
2023/02/14 08:24:32;;;;;;;16.63;9.10;;;3.30;99.90;;;;;;5037570;28;20464;-71
2023/02/14 08:26:58;;;;;;;19.60;8.67;;;3.40;99.90;;;;;;5045575;28;20238;-70
2023/02/14 08:29:24;;;;;;;18.17;9.50;;;3.40;99.90;;;;;;5038094;28;20454;-71
2023/02/14 08:31:50;;;;;;;25.57;11.07;;;3.40;99.90;;;;;;5025288;28;20992;-71
2023/02/14 08:34:17;;;;;;;15.13;9.30;;;3.30;99.90;;;;;;5023559;28;20210;-68
2023/02/14 08:36:43;;;;;;;19.20;9.17;;;3.30;99.90;;;;;;5032230;28;20235;-71
2023/02/14 08:39:09;;;;;;;17.43;8.37;;;3.40;99.90;;;;;;5046617;28;20468;-69
2023/02/14 08:41:35;;;;;;;21.50;10.03;;;3.50;99.90;;;;;;5027958;28;20218;-71
2023/02/14 08:44:01;;;;;;;15.60;8.70;;;3.40;99.90;;;;;;5044456;28;20245;-71
2023/02/14 08:46:27;;;;;;;17.90;10.00;;;3.50;99.90;;;;;;5047828;28;20551;-71
2023/02/14 08:48:54;;;;;;;18.87;10.00;;;3.40;99.90;;;;;;5039909;28;20473;-72
2023/02/14 08:51:24;;;;;;;18.27;9.17;;;3.40;99.90;;;;;;5042202;28;20461;-71
2023/02/14 08:53:50;;;;;;;15.80;8.23;;;3.40;99.90;;;;;;5030736;28;20461;-70
2023/02/14 08:56:17;;;;;;;22.53;9.70;;;3.50;99.90;;;;;;5030837;28;20479;-71
2023/02/14 08:58:43;;;;;;;21.77;11.20;;;3.50;99.90;;;;;;5023104;28;20458;-71
2023/02/14 09:01:15;;;;;;;21.50;11.07;;;3.50;99.90;;;;;;5039943;28;21112;-71
2023/02/14 09:03:41;;;;;;;17.03;8.83;;;3.50;99.90;;;;;;5024281;28;20707;-71
2023/02/14 09:06:10;;;;;;;22.57;10.30;;;3.50;99.90;;;;;;5045873;28;20476;-71
2023/02/14 09:08:37;;;;;;;40.30;17.50;;;3.50;99.90;;;;;;5017462;28;20479;-71
2023/02/14 09:11:12;;;;;;;33.80;17.13;;;3.50;99.90;;;;;;5031298;28;20805;-69
2023/02/14 09:13:39;;;;;;;30.03;13.97;;;3.50;99.90;;;;;;5035302;28;20458;-71
2023/02/14 09:16:06;;;;;;;27.47;14.40;;;3.50;99.90;;;;;;5018166;28;20496;-69
2023/02/14 09:18:32;;;;;;;25.67;10.53;;;3.50;99.90;;;;;;5022612;28;20500;-69
2023/02/14 09:20:58;;;;;;;22.27;10.50;;;3.50;99.90;;;;;;5016928;28;20470;-70
2023/02/14 09:23:23;;;;;;;22.60;10.17;;;3.50;99.90;;;;;;5041065;28;20465;-70
2023/02/14 09:25:49;;;;;;;21.30;9.90;;;3.50;99.90;;;;;;5031993;28;20246;-69
2023/02/14 09:28:15;;;;;;;21.00;10.87;;;3.50;99.90;;;;;;5031044;28;20225;-70
2023/02/14 09:30:40;;;;;;;24.57;11.57;;;3.60;99.90;;;;;;5015794;28;20236;-70
2023/02/14 09:33:06;;;;;;;19.53;11.33;;;3.50;99.90;;;;;;5018738;28;20305;-69
2023/02/14 09:35:32;;;;;;;27.87;12.43;;;3.50;99.90;;;;;;5037981;28;20579;-70
2023/02/14 09:38:17;;;;;;;29.80;11.97;;;3.50;99.90;;;;;;5024890;28;20245;-70
2023/02/14 09:40:43;;;;;;;21.70;10.57;;;3.50;99.90;;;;;;5037488;28;20231;-71
2023/02/14 09:43:19;;;;;;;29.83;13.20;;;3.50;99.90;;;;;;5026372;28;20512;-69
2023/02/14 09:45:53;;;;;;;24.43;14.93;;;3.50;99.90;;;;;;5037881;28;20483;-69
2023/02/14 09:48:24;;;;;;;25.03;12.50;;;3.60;99.90;;;;;;5022352;28;20547;-69
2023/02/14 09:50:57;;;;;;;37.70;13.90;;;3.60;99.90;;;;;;5015433;28;20538;-72
2023/02/14 09:53:33;;;;;;;30.47;16.37;;;3.70;99.90;;;;;;5024082;28;20487;-71
2023/02/14 09:56:05;;;;;;;26.30;14.20;;;3.70;99.90;;;;;;5039774;28;20535;-70
2023/02/14 09:58:43;;;;;;;32.20;14.77;;;3.70;99.90;;;;;;5020355;28;20452;-71
2023/02/14 10:01:24;;;;;;;27.50;15.13;;;3.70;99.90;;;;;;5040231;28;20466;-71
2023/02/14 10:04:11;;;;;;;37.63;16.17;;;3.70;99.90;;;;;;5014252;28;20468;-69
2023/02/14 10:06:48;;;;;;;25.97;12.37;;;3.70;99.90;;;;;;5049182;28;20469;-72
2023/02/14 10:09:45;;;;;;;34.03;16.20;;;3.60;99.90;;;;;;5039092;28;20465;-70
2023/02/14 10:12:21;;;;;;;26.83;13.10;;;3.70;99.90;;;;;;5037217;28;20465;-71
2023/02/14 10:14:48;;;;;;;19.70;11.50;;;3.70;99.90;;;;;;5026174;28;20461;-69
2023/02/14 10:17:33;;;;;;;33.83;12.80;;;3.70;99.90;;;;;;5038495;28;20872;-70
2023/02/14 10:20:04;;;;;;;26.23;12.53;;;3.70;99.90;;;;;;5045394;28;20453;-69
2023/02/14 10:22:44;;;;;;;24.20;10.53;;;3.70;99.90;;;;;;5045191;28;21008;-70
2023/02/14 10:25:19;;;;;;;33.70;12.83;;;3.70;99.90;;;;;;5042105;28;20545;-71
2023/02/14 10:27:46;;;;;;;39.30;13.33;;;3.70;99.90;;;;;;5029197;28;20461;-70
2023/02/14 10:30:13;;;;;;;28.13;13.10;;;3.70;99.90;;;;;;5014521;28;20453;-71
2023/02/14 10:32:44;;;;;;;28.37;12.20;;;3.70;99.90;;;;;;5036745;28;20465;-71
2023/02/14 10:35:21;;;;;;;22.30;11.30;;;3.70;99.90;;;;;;5036756;28;20456;-71
2023/02/14 10:37:53;;;;;;;27.17;12.20;;;3.70;99.90;;;;;;5031565;28;20458;-70
2023/02/14 10:41:11;;;;;;;26.17;11.33;;;3.70;99.90;;;;;;5028265;28;20992;-70
2023/02/14 10:44:14;;;;;;;22.33;10.03;;;3.70;99.90;;;;;;5004047;28;20499;-71
2023/02/14 10:46:53;;;;;;;26.27;10.97;;;3.70;99.90;;;;;;5035979;28;20473;-71
2023/02/14 10:49:56;;;;;;;29.80;12.20;;;3.70;99.90;;;;;;5022641;28;20456;-71
2023/02/14 10:52:36;;;;;;;27.80;14.00;;;3.70;99.90;;;;;;5005906;28;20468;-71
2023/02/14 10:55:18;;;;;;;25.30;13.37;;;3.70;99.90;;;;;;5042680;28;20465;-70
2023/02/14 10:57:48;;;;;;;32.37;14.53;;;3.80;99.90;;;;;;5037956;28;20461;-70
2023/02/14 11:00:20;;;;;;;22.70;12.23;;;3.80;99.90;;;;;;5018296;28;20576;-69
2023/02/14 11:02:49;;;;;;;27.40;14.23;;;3.80;99.90;;;;;;5040157;28;20522;-70
2023/02/14 11:05:35;;;;;;;28.57;13.40;;;3.80;99.90;;;;;;5040665;28;20465;-71
2023/02/14 11:08:10;;;;;;;23.20;11.03;;;3.80;99.90;;;;;;5032460;28;20531;-71
2023/02/14 11:10:37;;;;;;;24.33;11.80;;;3.80;99.90;;;;;;5022857;28;20491;-69
2023/02/14 11:13:27;;;;;;;29.37;12.77;;;3.80;99.90;;;;;;5043485;28;20454;-71
2023/02/14 11:15:56;;;;;;;24.93;12.13;;;3.80;99.90;;;;;;5021192;28;20457;-71
2023/02/14 11:18:30;;;;;;;25.10;11.67;;;3.80;99.90;;;;;;5024976;28;20579;-70
2023/02/14 11:21:05;;;;;;;28.20;12.00;;;3.80;99.90;;;;;;5023198;28;20547;-69
2023/02/14 11:23:39;;;;;;;29.83;12.53;;;3.80;99.90;;;;;;5044683;28;20490;-71
2023/02/14 11:26:10;;;;;;;32.80;12.37;;;3.90;99.90;;;;;;5037040;28;20566;-69
2023/02/14 11:28:56;;;;;;;28.20;14.60;;;3.80;99.90;;;;;;5025696;28;20477;-70
2023/02/14 11:31:31;;;;;;;25.43;11.73;;;3.80;99.90;;;;;;5008340;28;20461;-71
2023/02/14 11:33:57;;;;;;;26.47;11.37;;;3.80;99.90;;;;;;5025066;28;20484;-70
2023/02/14 11:36:24;;;;;;;29.27;12.47;;;3.90;99.90;;;;;;5022116;28;20526;-70
2023/02/14 11:39:06;;;;;;;26.50;11.30;;;3.90;99.90;;;;;;5040665;28;20453;-69
2023/02/14 11:42:04;;;;;;;25.57;10.77;;;3.90;99.90;;;;;;5042819;28;20488;-69
2023/02/14 11:44:33;;;;;;;21.47;8.90;;;3.80;99.90;;;;;;4983545;28;20453;-70
2023/02/14 11:47:24;;;;;;;23.13;11.00;;;3.90;99.90;;;;;;5041726;28;20470;-70
2023/02/14 11:49:59;;;;;;;22.80;9.90;;;3.90;99.90;;;;;;5036147;28;20459;-71
2023/02/14 11:52:28;;;;;;;23.67;10.00;;;3.90;99.90;;;;;;5036220;28;20538;-71
2023/02/14 11:54:55;;;;;;;16.80;9.00;;;3.90;99.90;;;;;;5022198;28;20472;-70
2023/02/14 11:57:21;;;;;;;26.30;11.23;;;3.80;99.90;;;;;;5033224;28;20464;-71
2023/02/14 11:59:51;;;;;;;23.83;11.10;;;3.90;99.90;;;;;;5043872;28;20469;-71
2023/02/14 12:02:29;;;;;;;24.57;10.07;;;3.90;99.90;;;;;;5042846;28;20221;-71
2023/02/14 12:05:02;;;;;;;19.63;9.63;;;4.00;99.90;;;;;;5047690;28;20461;-70
2023/02/14 12:07:32;;;;;;;19.07;8.80;;;3.90;99.90;;;;;;5030897;28;20470;-71
2023/02/14 12:10:27;;;;;;;22.03;11.87;;;4.00;99.90;;;;;;5048477;28;20483;-72
2023/02/14 12:13:02;;;;;;;28.23;11.43;;;4.00;99.90;;;;;;5027862;28;20472;-70
2023/02/14 12:15:37;;;;;;;30.23;12.60;;;4.00;99.90;;;;;;5047063;28;20483;-71
2023/02/14 12:18:18;;;;;;;29.37;12.00;;;4.00;99.90;;;;;;5043011;28;20960;-71
2023/02/14 12:21:02;;;;;;;32.00;11.40;;;4.00;99.90;;;;;;5055014;28;20459;-69
2023/02/14 12:23:45;;;;;;;24.33;10.67;;;4.00;99.90;;;;;;5048885;28;20498;-69
2023/02/14 12:26:13;;;;;;;23.63;11.00;;;4.00;99.90;;;;;;5025641;28;20479;-70
2023/02/14 12:28:56;;;;;;;24.00;10.20;;;4.00;99.90;;;;;;5026284;28;20982;-70
2023/02/14 12:31:21;;;;;;;25.30;11.30;;;4.00;99.90;;;;;;5023562;28;20453;-71
2023/02/14 12:33:47;;;;;;;18.87;9.80;;;4.00;99.90;;;;;;5044677;28;20458;-71
2023/02/14 12:36:13;;;;;;;24.40;9.90;;;4.00;99.90;;;;;;5016554;28;20234;-70
2023/02/14 12:39:03;;;;;;;29.20;12.10;;;3.90;99.90;;;;;;5012635;28;20219;-69
2023/02/14 12:41:41;;;;;;;28.30;10.93;;;3.90;99.90;;;;;;5040216;28;20218;-71
2023/02/14 12:44:39;;;;;;;28.20;10.00;;;3.90;99.90;;;;;;5037770;28;20461;-71
2023/02/14 12:47:23;;;;;;;21.57;10.23;;;4.00;99.90;;;;;;5010232;28;20465;-69
2023/02/14 12:50:15;;;;;;;22.73;10.80;;;4.00;99.90;;;;;;5040332;28;20595;-70
2023/02/14 12:53:24;;;;;;;25.97;10.73;;;4.00;99.90;;;;;;5037800;28;20450;-70
2023/02/14 12:56:03;;;;;;;28.10;12.47;;;4.00;99.90;;;;;;5026610;28;20457;-71
2023/02/14 12:58:34;;;;;;;34.37;16.43;;;4.00;99.90;;;;;;5023527;28;20487;-69
2023/02/14 13:01:06;;;;;;;36.50;18.00;;;4.10;99.90;;;;;;5024560;28;20457;-69
2023/02/14 13:04:02;;;;;;;31.10;14.63;;;4.10;99.90;;;;;;5030109;28;20491;-69
2023/02/14 13:06:37;;;;;;;29.73;13.17;;;4.10;99.90;;;;;;5022316;28;20462;-69
2023/02/14 13:09:41;;;;;;;25.57;12.20;;;4.10;99.90;;;;;;5043288;28;20951;-69
2023/02/14 13:12:27;;;;;;;24.50;11.57;;;4.10;99.90;;;;;;5025626;28;20492;-71
2023/02/14 13:15:49;;;;;;;30.93;13.07;;;4.10;99.90;;;;;;5043967;28;20440;-70
2023/02/14 13:18:38;;;;;;;25.43;12.17;;;4.00;99.90;;;;;;4971781;28;20498;-70